Time;durP1;ratioP1;P1;durP2;ratioP2;P2;SDS_P1;SDS_P2;PMS_P1;PMS_P2;Temp;Humidity;BMP_temperature;BMP_pressure;BME280_temperature;BME280_humidity;BME280_pressure;Samples;Min_cycle;Max_cycle;Signal;HPM_P1;HPM_P2
2022/05/19 00:02:08;;;;;;;2.60;1.30;;;;;;;21.49;44.04;101812.31;4956249;28;20058;-85
2022/05/19 00:04:37;;;;;;;1.38;1.25;;;;;;;21.43;43.63;101806.09;4924832;29;20074;-84
2022/05/19 00:07:06;;;;;;;1.58;1.42;;;;;;;21.55;44.24;101811.00;4957276;29;20059;-84
2022/05/19 00:09:34;;;;;;;1.67;1.58;;;;;;;21.42;43.92;101810.00;4957089;29;20046;-84
2022/05/19 00:12:10;;;;;;;1.70;1.60;;;;;;;21.52;43.96;101820.03;4957156;29;20086;-84
2022/05/19 00:14:38;;;;;;;4.25;2.17;;;;;;;21.49;43.96;101809.53;4957123;29;20047;-84
2022/05/19 00:17:06;;;;;;;1.27;1.13;;;;;;;21.47;44.85;101809.84;4957133;29;20043;-84
2022/05/19 00:19:35;;;;;;;3.40;1.80;;;;;;;21.52;44.70;101806.09;4957173;29;20044;-84
2022/05/19 00:22:03;;;;;;;3.35;1.60;;;;;;;21.48;44.46;101810.66;4956934;29;20398;-84
2022/05/19 00:24:31;;;;;;;2.95;1.70;;;;;;;21.38;44.44;101809.00;4956786;29;20505;-84
2022/05/19 00:26:59;;;;;;;2.22;1.77;;;;;;;21.28;44.44;101799.00;4936555;29;20506;-84
2022/05/19 00:29:27;;;;;;;1.33;1.20;;;;;;;21.26;43.90;101803.25;4937682;29;20510;-84
2022/05/19 00:31:56;;;;;;;1.75;1.55;;;;;;;21.20;43.71;101811.75;4936290;29;20499;-84
2022/05/19 00:34:24;;;;;;;1.92;1.75;;;;;;;21.17;44.64;101812.38;4937503;29;20481;-84
2022/05/19 00:37:01;;;;;;;1.60;1.50;;;;;;;21.07;44.75;101798.78;4937443;29;20047;-84
2022/05/19 00:39:33;;;;;;;1.58;1.48;;;;;;;21.06;44.72;101811.03;4937444;29;20043;-84
2022/05/19 00:44:48;;;;;;;2.33;1.50;;;;;;;20.94;45.07;101809.72;4937161;29;20055;-83
2022/05/19 00:47:21;;;;;;;2.30;1.55;;;;;;;20.85;45.71;101800.50;4937266;29;20047;-83
2022/05/19 00:49:51;;;;;;;1.80;1.70;;;;;;;20.88;45.07;101805.41;4937281;29;20062;-84
2022/05/19 00:52:34;;;;;;;1.80;1.60;;;;;;;20.88;45.58;101819.31;4937214;29;20054;-83
2022/05/19 00:55:07;;;;;;;2.42;1.33;;;;;;;20.90;45.41;101808.72;4937322;29;20051;-83
2022/05/19 00:57:43;;;;;;;1.63;1.48;;;;;;;20.91;45.10;101809.50;4937331;29;20406;-83
2022/05/19 01:00:17;;;;;;;1.50;1.20;;;;;;;20.95;44.97;101804.94;4935993;29;20044;-83
2022/05/19 01:02:54;;;;;;;2.47;1.52;;;;;;;20.95;45.20;101816.09;4936994;29;20280;-83
2022/05/19 01:05:40;;;;;;;2.10;1.50;;;;;;;20.95;45.28;101810.50;4937081;29;20059;-84
2022/05/19 01:08:27;;;;;;;1.75;1.65;;;;;;;21.02;45.33;101818.41;4936983;29;20403;-83
2022/05/19 01:10:57;;;;;;;5.20;1.52;;;;;;;21.03;45.79;101818.09;4936912;29;20062;-84
2022/05/19 01:13:30;;;;;;;4.03;1.58;;;;;;;20.98;45.46;101814.63;4936814;29;20406;-84
2022/05/19 01:16:00;;;;;;;3.17;1.50;;;;;;;20.96;45.84;101825.25;4936979;29;20051;-84
2022/05/19 01:18:30;;;;;;;2.97;1.27;;;;;;;20.78;45.76;101814.81;4936742;29;20048;-83
2022/05/19 01:20:59;;;;;;;3.88;1.77;;;;;;;20.79;45.97;101815.66;4935598;29;20059;-84
2022/05/19 01:24:00;;;;;;;1.50;1.40;;;;;;;20.87;45.71;101814.91;4936675;29;20427;-84
2022/05/19 01:26:28;;;;;;;1.95;1.77;;;;;;;20.85;46.05;101811.63;4937722;29;20107;-84
2022/05/19 01:28:58;;;;;;;3.22;1.50;;;;;;;20.78;45.52;101806.47;4955794;29;20056;-84
2022/05/19 01:31:38;;;;;;;2.00;1.58;;;;;;;20.74;45.91;101811.06;4955699;29;20487;-83
2022/05/19 01:34:08;;;;;;;1.50;1.40;;;;;;;20.81;45.83;101816.97;4938370;29;20051;-84
2022/05/19 01:36:36;;;;;;;3.17;1.73;;;;;;;20.77;45.69;101810.41;4955582;29;20047;-83
2022/05/19 01:39:17;;;;;;;1.88;1.65;;;;;;;20.75;46.14;101809.09;4955540;29;20047;-84
2022/05/19 01:41:51;;;;;;;1.65;1.55;;;;;;;20.73;46.84;101816.94;4955450;29;20047;-84
2022/05/19 01:44:29;;;;;;;;;;;;;;;20.74;46.01;101813.00;4956000;29;20486;-84
2022/05/19 01:47:22;;;;;;;1.70;1.60;;;;;;;20.73;45.84;101816.94;4955731;29;19923;-84
2022/05/19 01:49:50;;;;;;;1.67;1.55;;;;;;;20.80;45.85;101822.84;4955605;29;20047;-84
2022/05/19 01:52:31;;;;;;;1.58;1.27;;;;;;;20.74;45.69;101813.00;4922914;29;20051;-84
2022/05/19 01:55:26;;;;;;;1.40;1.30;;;;;;;20.75;44.77;101818.25;4955359;29;20050;-84
2022/05/19 01:58:23;;;;;;;;;;;;;;;20.85;44.57;101813.56;4955660;29;20060;-84
2022/05/19 02:00:54;;;;;;;1.58;1.48;;;;;;;20.87;45.15;101814.91;4877346;29;19930;-84
2022/05/19 02:04:04;;;;;;;3.35;1.70;;;;;;;20.85;44.21;101814.41;4877170;29;20061;-83
2022/05/19 02:06:41;;;;;;;2.78;1.70;;;;;;;20.86;44.78;101809.69;4929491;29;20074;-84
2022/05/19 02:09:15;;;;;;;1.70;1.52;;;;;;;20.83;44.84;101816.66;4955316;29;20051;-84
2022/05/19 02:11:49;;;;;;;1.85;1.70;;;;;;;20.77;44.21;101810.41;4938448;29;20066;-85
2022/05/19 02:14:22;;;;;;;1.60;1.50;;;;;;;20.77;44.12;101809.59;4954929;29;20052;-84
2022/05/19 02:16:50;;;;;;;1.73;1.52;;;;;;;20.77;44.42;101815.16;4937882;29;20043;-84
2022/05/19 02:19:24;;;;;;;3.28;1.80;;;;;;;20.82;43.98;101809.44;4955270;29;20051;-84
2022/05/19 02:21:53;;;;;;;2.60;1.65;;;;;;;20.73;44.79;101809.41;4955184;29;20062;-84
2022/05/19 02:24:25;;;;;;;2.58;1.48;;;;;;;20.78;44.70;101814.03;4955786;28;20043;-85
2022/05/19 02:26:53;;;;;;;2.10;1.80;;;;;;;20.80;44.78;101814.50;4960840;29;20066;-84
2022/05/19 02:29:23;;;;;;;3.05;1.58;;;;;;;20.77;44.29;101815.16;4959900;29;20043;-84
2022/05/19 02:31:52;;;;;;;2.60;1.50;;;;;;;20.91;44.72;101824.25;4975827;29;20047;-84
2022/05/19 02:34:20;;;;;;;2.00;1.80;;;;;;;20.88;44.30;101821.28;4959045;29;20043;-84
2022/05/19 02:36:49;;;;;;;1.67;1.40;;;;;;;20.81;44.66;101828.09;4968154;29;20062;-85
2022/05/19 02:39:17;;;;;;;3.03;1.92;;;;;;;20.79;45.65;101818.44;4942901;29;20047;-85
2022/05/19 02:41:46;;;;;;;5.40;1.73;;;;;;;20.80;45.05;101815.34;4935098;29;20039;-85
2022/05/19 02:44:14;;;;;;;2.20;1.30;;;;;;;20.86;45.42;101821.59;4935278;29;20043;-85
2022/05/19 02:46:42;;;;;;;1.52;1.38;;;;;;;20.80;45.59;101817.28;4935273;29;20404;-84
2022/05/19 02:49:10;;;;;;;1.90;1.70;;;;;;;20.84;45.69;101823.03;4935153;29;20051;-85
2022/05/19 02:51:38;;;;;;;1.90;1.40;;;;;;;20.81;45.23;101828.09;4935083;29;20047;-85
2022/05/19 02:54:06;;;;;;;1.63;1.52;;;;;;;20.75;46.25;101823.00;4935125;29;20499;-84
2022/05/19 02:56:33;;;;;;;1.40;1.30;;;;;;;20.77;46.25;101826.28;4935154;29;20059;-84
2022/05/19 02:59:01;;;;;;;1.88;1.73;;;;;;;20.80;46.98;101828.44;4935038;29;20052;-84
2022/05/19 03:01:30;;;;;;;3.90;1.70;;;;;;;20.80;48.42;101831.22;4935183;29;20484;-85
2022/05/19 03:03:58;;;;;;;1.70;1.60;;;;;;;20.76;48.80;101835.75;4917827;29;20043;-85
2022/05/19 03:06:26;;;;;;;1.88;1.75;;;;;;;20.67;49.60;101833.75;4934838;29;20043;-85
2022/05/19 03:08:53;;;;;;;2.35;2.10;;;;;;;20.70;50.05;101837.03;4917933;29;20047;-86
2022/05/19 03:11:21;;;;;;;1.95;1.52;;;;;;;20.70;49.87;101835.09;4934943;29;20040;-84
2022/05/19 03:13:49;;;;;;;1.40;1.33;;;;;;;20.74;49.85;101840.81;4934787;29;20499;-84
2022/05/19 03:16:17;;;;;;;2.40;1.60;;;;;;;20.73;49.48;101839.19;4934888;29;20495;-85
2022/05/19 03:18:45;;;;;;;3.70;1.73;;;;;;;20.68;49.27;101835.41;4918078;29;20395;-84
2022/05/19 03:21:13;;;;;;;2.83;1.92;;;;;;;20.58;48.80;101835.66;4934693;29;20044;-85
2022/05/19 03:23:41;;;;;;;1.67;1.58;;;;;;;20.64;48.87;101851.06;4916935;29;20415;-84
2022/05/19 03:26:10;;;;;;;2.40;1.98;;;;;;;20.59;48.27;101845.66;4934685;29;20044;-85
2022/05/19 03:28:38;;;;;;;2.28;1.85;;;;;;;20.67;47.03;101839.31;4934614;29;20052;-85
2022/05/19 03:31:09;;;;;;;1.63;1.50;;;;;;;20.72;47.72;101843.13;4934823;29;20043;-85
2022/05/19 03:33:37;;;;;;;2.20;1.67;;;;;;;20.67;47.45;101838.50;4934687;29;20051;-85
2022/05/19 03:36:06;;;;;;;3.45;1.70;;;;;;;20.65;47.96;101844.41;4936009;29;20047;-85
2022/05/19 03:38:34;;;;;;;2.08;1.75;;;;;;;20.62;47.11;101836.66;4938548;29;20051;-85
2022/05/19 03:41:03;;;;;;;4.00;1.67;;;;;;;20.57;48.10;101836.00;4938551;29;20487;-85
2022/05/19 03:43:31;;;;;;;2.03;1.83;;;;;;;20.60;46.82;101840.91;4938427;29;20384;-85
2022/05/19 03:46:01;;;;;;;1.75;1.65;;;;;;;20.59;47.15;101836.50;4921437;29;20048;-85
2022/05/19 03:48:38;;;;;;;2.35;1.88;;;;;;;20.73;46.95;101847.53;4938415;29;20059;-85
2022/05/19 03:51:23;;;;;;;1.63;1.52;;;;;;;20.75;47.00;101845.25;4921466;29;20418;-84
2022/05/19 03:53:52;;;;;;;1.98;1.60;;;;;;;20.70;46.96;101842.59;4938264;29;20047;-85
2022/05/19 03:56:22;;;;;;;3.20;1.67;;;;;;;20.77;46.52;101845.78;4938203;29;20508;-85
2022/05/19 03:58:51;;;;;;;2.92;1.42;;;;;;;20.70;47.00;101834.25;4938016;29;20062;-85
2022/05/19 04:01:21;;;;;;;3.00;1.80;;;;;;;20.62;46.36;101839.44;4938115;29;20048;-85
2022/05/19 04:03:50;;;;;;;2.55;1.48;;;;;;;20.61;45.82;101839.75;4938254;29;20053;-84
2022/05/19 04:06:18;;;;;;;2.55;1.55;;;;;;;20.66;46.76;101845.19;4937785;29;20066;-85
2022/05/19 04:08:48;;;;;;;1.48;1.38;;;;;;;20.65;46.10;101840.78;4938108;29;20051;-85
2022/05/19 04:11:16;;;;;;;1.77;1.50;;;;;;;20.68;46.34;101849.31;4937912;29;20056;-84
2022/05/19 04:13:44;;;;;;;1.55;1.40;;;;;;;20.62;46.82;101853.34;4937902;29;20055;-85
2022/05/19 04:16:12;;;;;;;1.90;1.35;;;;;;;20.67;47.40;101850.44;4937938;29;20047;-85
2022/05/19 04:18:40;;;;;;;3.80;1.70;;;;;;;20.75;46.69;101856.38;4920919;29;20071;-84
2022/05/19 04:21:08;;;;;;;2.53;1.75;;;;;;;20.76;45.72;101850.50;4937702;29;20056;-84
2022/05/19 04:23:36;;;;;;;1.85;1.60;;;;;;;20.79;45.68;101849.03;4920654;29;20071;-82
2022/05/19 04:26:05;;;;;;;3.33;2.13;;;;;;;20.88;44.06;101855.47;4937523;29;20059;-84
2022/05/19 04:28:33;;;;;;;2.40;1.52;;;;;;;20.81;43.95;101869.00;4917297;29;20048;-83
2022/05/19 04:31:01;;;;;;;1.60;1.50;;;;;;;20.73;44.00;101859.47;4918560;29;20044;-83
2022/05/19 04:33:29;;;;;;;1.85;1.70;;;;;;;20.67;44.83;101863.53;4917229;29;20051;-83
2022/05/19 04:35:57;;;;;;;2.92;1.52;;;;;;;20.62;44.09;101852.56;4917434;29;20052;-83
2022/05/19 04:38:25;;;;;;;1.48;1.35;;;;;;;20.56;44.38;101857.41;4918776;29;20060;-83
2022/05/19 04:40:53;;;;;;;1.20;1.20;;;;;;;20.66;43.69;101871.06;4918782;29;20055;-84
2022/05/19 04:43:22;;;;;;;1.95;1.40;;;;;;;20.74;43.32;101874.22;4917369;29;20052;-83
2022/05/19 04:45:53;;;;;;;3.50;1.90;;;;;;;20.72;44.09;101876.50;4918323;29;20083;-85
2022/05/19 04:48:22;;;;;;;1.73;1.60;;;;;;;20.76;43.80;101869.13;4918253;29;20052;-84
2022/05/19 04:50:57;;;;;;;1.55;1.45;;;;;;;20.68;43.73;101867.97;4918338;29;20504;-84
2022/05/19 04:53:26;;;;;;;1.70;1.60;;;;;;;20.76;44.45;101874.69;4918499;29;20048;-84
2022/05/19 04:55:54;;;;;;;6.53;1.50;;;;;;;21.12;44.60;101881.31;4918205;29;20064;-86
2022/05/19 04:58:23;;;;;;;2.00;1.80;;;;;;;21.33;43.05;101887.94;4917029;29;20044;-86
2022/05/19 05:00:52;;;;;;;1.50;1.40;;;;;;;21.34;42.61;101888.75;4918159;29;20055;-86
2022/05/19 05:03:20;;;;;;;3.33;1.52;;;;;;;21.53;43.08;101879.31;4917855;29;20048;-86
2022/05/19 05:05:48;;;;;;;1.63;1.52;;;;;;;21.52;43.03;101883.25;4917936;29;20117;-87
2022/05/19 05:08:16;;;;;;;1.88;1.67;;;;;;;21.73;42.20;101884.31;4916348;29;20052;-89
2022/05/19 05:10:44;;;;;;;1.75;1.60;;;;;;;21.82;42.67;101903.84;4902291;29;20052;-93
2022/05/19 05:13:14;;;;;;;2.58;1.42;;;;;;;21.83;41.98;101896.28;4902086;29;20404;-92
2022/05/19 05:15:43;;;;;;;3.55;1.55;;;;;;;21.87;41.71;101905.63;4901524;29;20060;-90
2022/05/19 05:18:12;;;;;;;2.95;1.52;;;;;;;21.80;41.92;101902.50;4901136;29;20058;-90
2022/05/19 05:20:42;;;;;;;1.67;1.40;;;;;;;21.77;42.83;101906.78;4917228;29;20404;-93
2022/05/19 05:23:12;;;;;;;2.47;1.50;;;;;;;21.77;42.75;101911.50;4901234;29;20052;-91
2022/05/19 05:25:40;;;;;;;2.22;1.25;;;;;;;21.79;41.64;101914.81;4901146;29;20056;-91
2022/05/19 05:28:09;;;;;;;1.33;1.23;;;;;;;21.70;41.89;101914.78;4897863;29;20056;-90
2022/05/19 05:30:37;;;;;;;1.27;1.17;;;;;;;21.85;42.07;101908.75;4867133;29;20056;-91
2022/05/19 05:33:08;;;;;;;1.63;1.50;;;;;;;21.80;42.06;101910.88;4881815;29;20404;-90
2022/05/19 05:35:39;;;;;;;1.55;1.42;;;;;;;21.77;41.33;101922.66;4878982;29;20060;-88
2022/05/19 05:38:08;;;;;;;2.22;1.67;;;;;;;21.85;41.14;101919.09;4882502;29;20045;-89
2022/05/19 05:40:36;;;;;;;3.58;1.60;;;;;;;21.84;42.13;101918.25;4866074;29;20393;-87
2022/05/19 05:43:09;;;;;;;4.28;1.70;;;;;;;22.06;41.38;101924.84;4897496;29;20057;-87
2022/05/19 05:45:38;;;;;;;1.55;1.40;;;;;;;22.20;40.90;101919.13;4905163;29;20051;-87
2022/05/19 05:48:07;;;;;;;2.00;1.60;;;;;;;22.26;40.00;101923.38;4916015;29;20051;-88
2022/05/19 05:50:35;;;;;;;1.95;1.85;;;;;;;22.34;39.88;101920.91;4900455;29;20571;-88
2022/05/19 05:53:05;;;;;;;1.70;1.60;;;;;;;22.47;40.42;101927.44;4900455;29;20052;-88
2022/05/19 05:55:34;;;;;;;1.08;1.08;;;;;;;22.51;40.24;101940.44;4900543;29;20082;-88
2022/05/19 05:58:10;;;;;;;1.65;1.42;;;;;;;22.53;40.39;101934.56;4899955;29;20129;-88
2022/05/19 06:00:39;;;;;;;2.67;1.77;;;;;;;22.55;40.95;101940.63;4900132;29;20063;-88
2022/05/19 06:03:07;;;;;;;1.73;1.48;;;;;;;22.60;40.51;101934.03;4915621;29;20052;-88
2022/05/19 06:05:35;;;;;;;2.75;1.35;;;;;;;22.71;40.19;101932.56;4915568;29;20062;-88
2022/05/19 06:08:03;;;;;;;1.60;1.30;;;;;;;22.82;40.67;101938.59;4915755;29;20052;-88
2022/05/19 06:10:33;;;;;;;3.22;1.73;;;;;;;22.75;40.73;101938.28;4915738;29;20044;-87
2022/05/19 06:13:01;;;;;;;3.17;1.63;;;;;;;22.73;40.70;101938.63;4915514;29;20416;-88
2022/05/19 06:15:29;;;;;;;1.30;1.20;;;;;;;22.75;39.30;101936.34;4899791;29;20514;-87
2022/05/19 06:17:58;;;;;;;2.65;1.48;;;;;;;22.72;39.41;101928.59;4915629;29;20503;-88
2022/05/19 06:20:26;;;;;;;2.05;1.90;;;;;;;22.89;39.14;101938.94;4899788;29;20048;-87
2022/05/19 06:22:54;;;;;;;3.35;1.45;;;;;;;22.75;39.14;101939.13;4899699;29;20055;-88
2022/05/19 06:25:23;;;;;;;1.88;1.75;;;;;;;22.99;39.12;101936.94;4915273;29;20067;-89
2022/05/19 06:27:51;;;;;;;2.40;1.45;;;;;;;23.16;40.31;101941.66;4899688;29;20059;-88
2022/05/19 06:30:20;;;;;;;2.38;1.80;;;;;;;23.21;40.80;101933.06;4884371;29;20519;-87
2022/05/19 06:32:49;;;;;;;3.42;1.98;;;;;;;23.30;41.50;101939.47;4899588;29;20504;-88
2022/05/19 06:35:21;;;;;;;2.63;1.98;;;;;;;23.44;41.09;101935.63;4899545;29;20048;-88
2022/05/19 06:37:50;;;;;;;1.80;1.55;;;;;;;23.45;41.01;101954.88;4884436;29;20067;-89
2022/05/19 06:40:19;;;;;;;1.55;1.45;;;;;;;23.54;40.43;101946.44;4915480;29;20044;-89
2022/05/19 06:42:47;;;;;;;2.17;1.50;;;;;;;23.62;40.24;101948.38;4884289;29;20052;-88
2022/05/19 06:45:22;;;;;;;1.75;1.30;;;;;;;23.71;39.93;101950.31;4899782;29;20067;-89
2022/05/19 06:47:51;;;;;;;2.63;1.75;;;;;;;23.81;39.61;101943.50;4884379;29;20543;-88
2022/05/19 06:50:21;;;;;;;2.15;1.95;;;;;;;23.65;40.14;101946.88;4899831;29;20084;-89
2022/05/19 06:52:55;;;;;;;1.17;1.08;;;;;;;23.61;40.30;101949.53;4884267;29;20507;-89
2022/05/19 06:55:23;;;;;;;3.40;1.42;;;;;;;23.75;40.46;101942.88;4901112;29;20055;-89
2022/05/19 06:57:51;;;;;;;2.85;1.60;;;;;;;23.77;40.13;101943.38;4885270;29;20396;-89
2022/05/19 07:00:23;;;;;;;4.78;2.20;;;;;;;23.91;40.77;101942.28;4884296;29;20052;-89
2022/05/19 07:02:55;;;;;;;4.97;1.85;;;;;;;23.94;40.16;101928.44;4899599;29;20055;-88
2022/05/19 07:05:28;;;;;;;1.92;1.73;;;;;;;23.87;39.73;101943.00;4884031;29;20056;-89
2022/05/19 07:07:56;;;;;;;1.98;1.70;;;;;;;23.85;40.42;101939.69;4915539;29;20048;-89
2022/05/19 07:10:27;;;;;;;2.88;2.08;;;;;;;23.82;39.85;101943.19;4899743;29;20052;-89
2022/05/19 07:12:56;;;;;;;2.40;1.75;;;;;;;23.87;39.14;101948.56;4900864;29;20048;-89
2022/05/19 07:15:24;;;;;;;2.95;1.90;;;;;;;23.97;39.69;101940.94;4899623;29;20538;-89
2022/05/19 07:17:52;;;;;;;3.13;1.90;;;;;;;24.01;39.04;101947.50;4899512;29;20071;-89
2022/05/19 07:23:10;;;;;;;2.55;2.33;;;;;;;24.02;39.31;101937.94;4899288;29;20059;-90
2022/05/19 07:25:38;;;;;;;2.10;1.90;;;;;;;24.02;39.33;101940.75;4899353;29;20437;-89
2022/05/19 07:28:07;;;;;;;1.85;1.75;;;;;;;24.05;39.47;101947.63;4899357;29;20049;-90
2022/05/19 07:30:36;;;;;;;2.97;1.67;;;;;;;24.01;39.52;101958.69;4884114;29;20051;-89
2022/05/19 07:33:06;;;;;;;2.22;1.40;;;;;;;24.14;38.71;101951.19;4915805;29;20036;-89
2022/05/19 07:35:34;;;;;;;1.73;1.60;;;;;;;24.02;38.48;101957.50;4902448;29;20055;-90
2022/05/19 07:38:03;;;;;;;4.97;1.92;;;;;;;24.21;39.12;101950.66;4906005;29;20064;-89
2022/05/19 07:40:31;;;;;;;3.28;1.85;;;;;;;24.26;38.07;101942.06;4903106;29;20075;-89
2022/05/19 07:43:35;;;;;;;2.03;1.92;;;;;;;24.30;37.69;101948.63;4885031;29;20063;-89
2022/05/19 07:45:49;;;;;;;1.70;1.60;;;;;;;24.32;38.39;101949.09;4899441;29;20060;-89
2022/05/19 07:48:17;;;;;;;3.05;2.05;;;;;;;24.37;38.43;101948.88;4899297;29;20059;-89
2022/05/19 07:50:45;;;;;;;1.98;1.77;;;;;;;24.47;38.53;101946.81;4898680;29;20048;-90
2022/05/19 07:53:13;;;;;;;2.72;1.55;;;;;;;24.64;37.74;101957.06;4899102;29;20063;-90
2022/05/19 07:55:41;;;;;;;1.13;1.13;;;;;;;24.62;37.78;101948.16;4883896;29;20048;-90
2022/05/19 07:58:09;;;;;;;1.90;1.65;;;;;;;24.67;37.82;101947.94;4899226;29;20044;-91
2022/05/19 08:00:37;;;;;;;2.47;1.98;;;;;;;24.60;36.42;101945.72;4899504;29;20423;-90
2022/05/19 08:03:06;;;;;;;2.80;1.67;;;;;;;24.60;37.19;101951.31;4899233;29;20052;-90
2022/05/19 08:05:34;;;;;;;1.88;1.50;;;;;;;24.53;37.64;101951.88;4917971;29;20052;-91
2022/05/19 08:08:05;;;;;;;2.85;1.42;;;;;;;24.62;37.53;101954.59;4900823;29;20051;-90
2022/05/19 08:10:33;;;;;;;1.90;1.60;;;;;;;24.71;37.68;101954.50;4916431;29;20044;-90
2022/05/19 08:15:53;;;;;;;2.65;1.88;;;;;;;24.87;37.27;101953.91;4899206;29;20045;-89
2022/05/19 08:18:23;;;;;;;2.35;1.63;;;;;;;24.89;36.63;101952.41;4884723;29;20052;-91
2022/05/19 08:20:59;;;;;;;1.73;1.58;;;;;;;24.93;37.09;101955.31;4885280;29;20063;-91
2022/05/19 08:23:31;;;;;;;3.30;1.95;;;;;;;25.02;35.93;101953.22;4902256;29;20056;-88
2022/05/19 08:26:00;;;;;;;1.90;1.80;;;;;;;25.03;37.30;101940.84;4886734;29;20063;-88
2022/05/19 08:28:32;;;;;;;;;;;;;;;25.14;35.10;101949.66;4905136;29;20518;-88
2022/05/19 08:31:10;;;;;;;2.83;1.65;;;;;;;25.13;35.77;101939.59;4902451;29;19923;-88
2022/05/19 08:33:41;;;;;;;1.90;1.80;;;;;;;25.26;35.81;101948.03;4902560;29;20056;-88
2022/05/19 08:36:10;;;;;;;1.67;1.58;;;;;;;25.34;36.22;101942.31;4902337;29;20055;-88
2022/05/19 08:38:39;;;;;;;1.85;1.65;;;;;;;25.58;35.99;101951.09;4902243;29;20519;-89
2022/05/19 08:41:09;;;;;;;2.05;1.60;;;;;;;25.60;35.18;101952.38;4917681;29;20044;-88
2022/05/19 08:43:57;;;;;;;1.70;1.60;;;;;;;25.72;35.02;101948.75;4901558;29;20063;-88
2022/05/19 08:46:39;;;;;;;1.60;1.48;;;;;;;25.62;33.29;101935.22;4901680;29;20056;-88
2022/05/19 08:49:49;;;;;;;3.67;1.95;;;;;;;25.64;34.23;101938.47;4901695;29;20416;-89
2022/05/19 08:52:20;;;;;;;3.55;1.77;;;;;;;25.48;34.36;101935.53;4796018;29;20057;-88
2022/05/19 08:54:52;;;;;;;2.10;1.58;;;;;;;25.37;33.41;101929.59;4917132;29;20420;-89
2022/05/19 08:57:24;;;;;;;1.38;1.27;;;;;;;25.47;32.81;101928.31;4917215;29;20055;-89
2022/05/19 09:00:15;;;;;;;2.97;1.63;;;;;;;25.46;33.44;101921.88;4901421;29;20056;-90
2022/05/19 09:03:08;;;;;;;1.40;1.30;;;;;;;25.46;32.82;101930.28;4885959;29;20052;-89
2022/05/19 09:06:05;;;;;;;2.05;1.67;;;;;;;25.59;33.23;101933.09;4901415;29;20052;-89
2022/05/19 09:08:45;;;;;;;2.67;1.20;;;;;;;25.60;33.37;101929.13;4916926;29;20062;-90
2022/05/19 09:11:19;;;;;;;1.58;1.45;;;;;;;25.57;33.96;101927.84;4902063;29;20048;-90
2022/05/19 09:14:06;;;;;;;1.75;1.60;;;;;;;25.60;33.18;101929.97;4904053;29;20049;-90
2022/05/19 09:16:35;;;;;;;2.05;1.58;;;;;;;25.65;32.80;101928.91;4886099;29;20056;-89
2022/05/19 09:19:25;;;;;;;1.80;1.70;;;;;;;25.74;33.21;101928.78;4885863;29;20052;-89
2022/05/19 09:22:09;;;;;;;3.97;1.80;;;;;;;25.72;33.12;101923.50;4901323;29;20049;-88
2022/05/19 09:24:38;;;;;;;6.25;1.88;;;;;;;25.80;33.12;101924.56;4917041;29;20048;-90
2022/05/19 09:27:06;;;;;;;1.75;1.65;;;;;;;25.58;33.65;101926.69;4901187;29;20071;-89
2022/05/19 09:29:45;;;;;;;1.83;1.67;;;;;;;25.77;33.80;101928.88;4901202;29;20047;-89
2022/05/19 09:32:37;;;;;;;1.90;1.40;;;;;;;25.86;33.98;101917.53;4901305;29;20060;-89
2022/05/19 09:35:17;;;;;;;2.72;1.60;;;;;;;26.15;33.09;101921.22;4900378;29;20048;-89
2022/05/19 09:38:16;;;;;;;2.65;2.15;;;;;;;26.15;33.56;101923.22;4901412;29;20048;-91
2022/05/19 09:40:48;;;;;;;2.92;2.03;;;;;;;26.11;32.83;101925.09;4885896;29;20044;-89
2022/05/19 09:43:26;;;;;;;2.22;1.88;;;;;;;26.11;33.17;101928.72;4885734;29;20508;-90
2022/05/19 09:46:31;;;;;;;2.72;1.85;;;;;;;26.12;34.83;101921.94;4916379;29;20044;-90
2022/05/19 09:49:05;;;;;;;2.45;1.85;;;;;;;26.37;34.16;101923.84;4873669;29;20051;-89
2022/05/19 09:51:42;;;;;;;;;;;;;;;26.35;33.87;101923.41;4916795;29;20405;-88
2022/05/19 09:54:12;;;;;;;2.40;1.63;;;;;;;26.39;33.65;101913.91;4900698;29;19927;-89
2022/05/19 09:56:59;;;;;;;2.17;1.98;;;;;;;26.41;33.44;101908.78;4885803;29;20048;-89
2022/05/19 09:59:48;;;;;;;1.77;1.67;;;;;;;26.45;33.66;101917.28;4916378;29;20051;-89
2022/05/19 10:02:23;;;;;;;2.65;1.55;;;;;;;26.60;33.56;101920.47;4901190;29;20407;-89
2022/05/19 10:04:57;;;;;;;1.65;1.55;;;;;;;26.51;32.92;101915.84;4900711;29;20435;-89
2022/05/19 10:07:36;;;;;;;2.35;1.58;;;;;;;26.56;33.69;101909.16;4900544;29;20059;-89
2022/05/19 10:10:19;;;;;;;2.25;1.80;;;;;;;26.83;33.16;101915.91;4916393;29;20048;-89
2022/05/19 10:12:49;;;;;;;2.03;1.63;;;;;;;26.78;33.04;101915.38;4916132;29;20055;-88
2022/05/19 10:15:21;;;;;;;3.00;1.67;;;;;;;26.81;33.76;101909.00;4900698;29;20048;-91
2022/05/19 10:18:15;;;;;;;2.08;1.63;;;;;;;26.81;31.79;101906.19;4916001;29;20059;-88
2022/05/19 10:21:08;;;;;;;4.13;1.70;;;;;;;26.92;32.43;101903.69;4900116;29;20056;-88
2022/05/19 10:23:36;;;;;;;1.83;1.70;;;;;;;27.05;32.45;101896.00;4900543;29;20064;-87
2022/05/19 10:26:38;;;;;;;1.55;1.45;;;;;;;27.23;32.30;101894.47;4893011;29;20049;-88
2022/05/19 10:33:03;;;;;;;3.17;1.70;;;;;;;27.23;33.19;101891.66;4906263;29;20048;-87
2022/05/19 10:35:50;;;;;;;5.45;2.20;;;;;;;27.24;33.78;101895.28;4915248;29;20055;-89
2022/05/19 10:38:29;;;;;;;3.72;2.08;;;;;;;27.27;32.70;101890.94;4900468;29;20401;-87
2022/05/19 10:41:13;;;;;;;2.97;2.13;;;;;;;27.28;32.74;101884.97;4927613;29;20055;-88
2022/05/19 10:43:57;;;;;;;2.85;2.25;;;;;;;27.28;34.39;101882.16;4927820;29;20048;-88
2022/05/19 10:46:37;;;;;;;2.63;1.70;;;;;;;27.43;33.44;101885.28;4917913;29;20060;-86
2022/05/19 10:49:29;;;;;;;2.55;2.05;;;;;;;27.24;33.90;101878.44;4915883;29;20048;-86
2022/05/19 10:52:26;;;;;;;1.90;1.75;;;;;;;27.41;33.32;101884.84;4914975;29;20048;-87
2022/05/19 10:55:12;;;;;;;1.98;1.83;;;;;;;27.41;32.85;101876.41;4915094;29;20044;-88
2022/05/19 10:57:47;;;;;;;2.00;1.85;;;;;;;27.51;33.38;101881.44;4899534;29;20048;-88
2022/05/19 11:00:25;;;;;;;2.15;1.80;;;;;;;27.78;33.97;101873.25;4915215;29;20488;-87
2022/05/19 11:03:20;;;;;;;4.18;2.10;;;;;;;27.81;34.43;101869.69;4916248;29;20051;-87
2022/05/19 11:06:07;;;;;;;4.63;2.40;;;;;;;27.80;34.20;101859.63;4899170;29;20052;-87
2022/05/19 11:08:57;;;;;;;2.60;2.40;;;;;;;28.06;34.71;101854.53;4914956;29;20055;-88
2022/05/19 11:11:56;;;;;;;3.53;2.40;;;;;;;27.97;34.51;101855.59;4916240;29;20055;-88
2022/05/19 11:14:46;;;;;;;2.22;2.05;;;;;;;28.05;33.16;101845.28;4916223;29;20064;-88
2022/05/19 11:17:30;;;;;;;1.92;1.77;;;;;;;28.17;34.88;101841.50;4916026;29;20056;-88
2022/05/19 11:20:13;;;;;;;6.03;2.00;;;;;;;28.46;33.24;101849.69;4915990;29;20056;-87
2022/05/19 11:22:42;;;;;;;3.17;1.90;;;;;;;28.66;32.66;101848.47;4914738;29;20066;-89
2022/05/19 11:28:22;;;;;;;1.83;1.73;;;;;;;28.31;33.64;101838.19;4929184;29;20077;-89
2022/05/19 11:31:07;;;;;;;3.30;2.25;;;;;;;28.29;33.96;101834.91;4902335;29;20040;-88
2022/05/19 11:33:39;;;;;;;2.38;2.17;;;;;;;28.77;35.08;101836.56;4935020;29;20067;-91
2022/05/19 11:36:37;;;;;;;5.72;2.38;;;;;;;28.90;33.09;101834.41;4919002;29;20506;-93
2022/05/19 11:39:25;;;;;;;3.22;2.35;;;;;;;28.86;32.45;101833.50;4901782;29;20056;-92
2022/05/19 11:41:57;;;;;;;2.35;2.15;;;;;;;28.79;32.01;101831.38;4903223;29;20047;-93
2022/05/19 11:44:33;;;;;;;2.40;2.20;;;;;;;28.35;32.93;101838.25;4921406;29;20483;-93
2022/05/19 11:47:12;;;;;;;2.42;2.03;;;;;;;28.79;35.36;101831.38;4911007;29;20056;-93
2022/05/19 11:55:42;;;;;;;;;;;;;;;29.30;33.04;101826.56;4918518;29;20051;-89
2022/05/19 11:58:20;;;;;;;2.70;2.50;;;;;;;29.03;33.45;101826.56;4920514;29;19927;-89
2022/05/19 12:00:57;;;;;;;2.53;2.20;;;;;;;28.80;33.76;101830.19;4920174;29;20043;-88
2022/05/19 12:03:38;;;;;;;2.40;2.20;;;;;;;28.83;33.79;101826.59;4938176;29;20506;-87
2022/05/19 12:06:12;;;;;;;2.85;1.92;;;;;;;28.90;33.43;101818.31;4901613;29;20048;-89
2022/05/19 12:08:57;;;;;;;2.15;1.90;;;;;;;29.08;33.74;101824.22;4919208;29;20600;-90
2022/05/19 12:11:29;;;;;;;2.65;2.20;;;;;;;28.92;33.33;101818.75;4919071;29;20510;-89
2022/05/19 12:14:08;;;;;;;2.78;2.17;;;;;;;29.06;33.54;101821.00;4886424;29;20056;-89
2022/05/19 12:16:40;;;;;;;1.95;1.83;;;;;;;29.12;33.31;101829.91;4886568;29;20415;-89
2022/05/19 12:19:09;;;;;;;2.10;1.90;;;;;;;28.85;33.83;101810.16;4871503;29;20512;-90